Time;durP1;ratioP1;P1;durP2;ratioP2;P2;SDS_P1;SDS_P2;PMS_P1;PMS_P2;Temp;Humidity;BMP_temperature;BMP_pressure;BME280_temperature;BME280_humidity;BME280_pressure;Samples;Min_cycle;Max_cycle;Signal;HPM_P1;HPM_P2
2023/08/21 00:00:21;;;;;;;17.53;16.33;;;23.50;99.90;;;;;;5040153;28;20277;-55
2023/08/21 00:02:46;;;;;;;18.80;17.50;;;23.50;99.90;;;;;;5040314;28;20213;-52
2023/08/21 00:05:12;;;;;;;19.53;18.17;;;23.40;99.90;;;;;;5040570;28;20213;-52
2023/08/21 00:07:37;;;;;;;18.87;17.67;;;23.40;99.90;;;;;;5041071;28;21127;-51
2023/08/21 00:10:04;;;;;;;20.70;19.00;;;23.40;99.90;;;;;;5039758;28;20197;-53
2023/08/21 00:12:29;;;;;;;20.20;18.70;;;23.40;99.90;;;;;;5040797;28;20213;-55
2023/08/21 00:14:55;;;;;;;18.70;17.50;;;23.40;99.90;;;;;;5040986;28;20471;-54
2023/08/21 00:17:21;;;;;;;18.50;17.20;;;23.40;99.90;;;;;;5039390;28;20178;-53
2023/08/21 00:19:46;;;;;;;18.13;16.80;;;23.30;99.90;;;;;;5038494;28;20190;-54
2023/08/21 00:22:12;;;;;;;18.33;16.93;;;23.30;99.90;;;;;;5041061;28;20189;-52
2023/08/21 00:24:37;;;;;;;18.27;17.10;;;23.30;99.90;;;;;;5040716;28;20700;-53
2023/08/21 00:27:03;;;;;;;17.50;16.30;;;23.30;99.90;;;;;;5040630;28;20317;-54
2023/08/21 00:29:29;;;;;;;17.53;16.47;;;23.20;99.90;;;;;;5039501;28;20347;-50
2023/08/21 00:31:55;;;;;;;19.00;17.70;;;23.20;99.90;;;;;;5039775;28;20440;-51
2023/08/21 00:34:21;;;;;;;18.63;17.43;;;23.10;99.90;;;;;;5040488;28;20419;-54
2023/08/21 00:36:46;;;;;;;18.00;16.80;;;23.10;99.90;;;;;;5039930;28;20174;-55
2023/08/21 00:39:12;;;;;;;18.20;16.93;;;23.10;99.90;;;;;;5039434;28;20315;-54
2023/08/21 00:41:38;;;;;;;17.80;16.50;;;23.10;99.90;;;;;;5039341;28;20185;-44
2023/08/21 00:44:04;;;;;;;17.30;16.20;;;23.00;99.90;;;;;;5038015;28;20454;-41
2023/08/21 00:46:30;;;;;;;16.87;15.77;;;23.00;99.90;;;;;;5040022;28;20236;-44
2023/08/21 00:48:57;;;;;;;17.23;16.13;;;23.00;99.90;;;;;;5018500;28;20214;-41
2023/08/21 00:51:23;;;;;;;17.70;16.40;;;22.90;99.90;;;;;;5039570;28;20551;-51
2023/08/21 00:53:49;;;;;;;17.03;16.03;;;22.90;99.90;;;;;;5039823;28;20782;-49
2023/08/21 00:56:15;;;;;;;17.80;16.70;;;22.80;99.90;;;;;;5039361;28;20467;-52
2023/08/21 00:58:41;;;;;;;18.17;16.93;;;22.80;99.90;;;;;;5039237;28;20652;-53
2023/08/21 01:01:07;;;;;;;17.37;16.30;;;22.70;99.90;;;;;;5014343;28;20490;-54
2023/08/21 01:03:32;;;;;;;18.00;16.60;;;22.70;99.90;;;;;;5038388;28;20443;-55
2023/08/21 01:05:58;;;;;;;16.93;15.83;;;22.60;99.90;;;;;;5039991;28;20624;-52
2023/08/21 01:08:48;;;;;;;17.60;16.40;;;22.60;99.90;;;;;;5038235;28;20189;-48
2023/08/21 01:11:30;;;;;;;17.27;16.17;;;22.50;99.90;;;;;;5037483;28;20703;-53
2023/08/21 01:14:06;;;;;;;18.63;17.43;;;22.50;99.90;;;;;;5039547;28;21133;-55
2023/08/21 01:16:33;;;;;;;16.97;15.93;;;22.40;99.90;;;;;;5041379;28;20458;-54
2023/08/21 01:19:00;;;;;;;18.00;16.80;;;22.40;99.90;;;;;;5043683;28;20884;-55
2023/08/21 01:21:26;;;;;;;18.40;17.00;;;22.40;99.90;;;;;;5043281;28;20472;-55
2023/08/21 01:23:52;;;;;;;17.03;15.90;;;22.40;99.90;;;;;;5043851;28;20424;-54
2023/08/21 01:26:18;;;;;;;17.60;16.40;;;22.30;99.90;;;;;;5043203;28;21028;-54
2023/08/21 01:28:44;;;;;;;18.13;16.83;;;22.30;99.90;;;;;;5042073;28;20966;-53
2023/08/21 01:31:38;;;;;;;18.70;17.40;;;22.30;99.90;;;;;;5043659;28;20298;-54
2023/08/21 01:34:06;;;;;;;18.13;16.83;;;22.30;99.90;;;;;;5040587;28;20447;-56
2023/08/21 01:36:33;;;;;;;17.60;16.40;;;22.20;99.90;;;;;;5043573;28;21250;-56
2023/08/21 01:38:59;;;;;;;17.87;16.47;;;22.20;99.90;;;;;;5042115;28;20651;-52
2023/08/21 01:41:25;;;;;;;16.27;15.27;;;22.20;99.90;;;;;;5041605;28;20440;-55
2023/08/21 01:43:51;;;;;;;17.90;16.50;;;22.20;99.90;;;;;;5043278;28;20830;-42
2023/08/21 01:46:17;;;;;;;17.07;15.97;;;22.20;99.90;;;;;;5041490;28;20444;-44
2023/08/21 01:48:42;;;;;;;17.47;16.37;;;22.10;99.90;;;;;;5041778;28;20570;-42
2023/08/21 01:51:08;;;;;;;16.70;15.70;;;22.20;99.90;;;;;;5041814;28;20428;-41
2023/08/21 01:53:33;;;;;;;17.73;16.43;;;22.10;99.90;;;;;;5043563;28;20272;-41
2023/08/21 01:55:59;;;;;;;17.83;16.63;;;22.10;99.90;;;;;;5043495;28;20189;-40
2023/08/21 01:58:24;;;;;;;17.43;16.33;;;22.10;99.90;;;;;;5042294;28;20186;-43
2023/08/21 02:00:50;;;;;;;17.80;16.60;;;22.00;99.90;;;;;;5042988;28;20195;-47
2023/08/21 02:03:16;;;;;;;17.20;16.10;;;22.00;99.90;;;;;;5042448;28;20186;-45
2023/08/21 02:05:41;;;;;;;17.10;16.00;;;22.00;99.90;;;;;;5042747;28;20267;-42
2023/08/21 02:08:13;;;;;;;17.10;15.83;;;21.90;99.90;;;;;;5043068;28;20189;-41
2023/08/21 02:10:48;;;;;;;17.00;15.83;;;21.90;99.90;;;;;;5041488;28;21280;-45
2023/08/21 02:13:14;;;;;;;18.17;16.87;;;21.80;99.90;;;;;;5043033;28;20420;-41
2023/08/21 02:15:39;;;;;;;16.83;15.73;;;21.80;99.90;;;;;;5043197;28;20420;-41
2023/08/21 02:18:05;;;;;;;17.57;16.37;;;21.80;99.90;;;;;;5042983;28;20539;-41
2023/08/21 02:20:30;;;;;;;17.27;16.07;;;21.80;99.90;;;;;;5040063;28;20197;-43
2023/08/21 02:22:56;;;;;;;16.33;15.13;;;21.80;99.90;;;;;;5042999;28;20263;-42
2023/08/21 02:25:22;;;;;;;16.97;15.80;;;21.80;99.90;;;;;;5042361;28;20558;-43
2023/08/21 02:27:47;;;;;;;17.47;16.13;;;21.70;99.90;;;;;;5041140;28;20357;-41
2023/08/21 02:30:13;;;;;;;17.33;16.13;;;21.70;99.90;;;;;;5042199;28;20213;-42
2023/08/21 02:32:40;;;;;;;18.37;17.07;;;21.70;99.90;;;;;;5041887;28;20575;-42
2023/08/21 02:35:06;;;;;;;17.30;16.07;;;21.70;99.90;;;;;;5042652;28;20186;-43
2023/08/21 02:37:32;;;;;;;17.03;15.87;;;21.60;99.90;;;;;;5042476;28;20424;-41
2023/08/21 02:39:59;;;;;;;16.57;15.47;;;21.60;99.90;;;;;;5041274;28;20455;-44
2023/08/21 02:42:25;;;;;;;18.10;16.90;;;21.60;99.90;;;;;;5042491;28;20194;-42
2023/08/21 02:44:50;;;;;;;16.47;15.37;;;21.50;99.90;;;;;;5042571;28;20425;-41
2023/08/21 02:47:16;;;;;;;17.03;15.80;;;21.50;99.90;;;;;;5042432;28;20193;-43
2023/08/21 02:49:41;;;;;;;18.13;16.83;;;21.50;99.90;;;;;;5041101;28;20253;-42
2023/08/21 02:52:08;;;;;;;16.47;15.33;;;21.40;99.90;;;;;;5042486;28;20182;-44
2023/08/21 02:54:33;;;;;;;18.13;16.73;;;21.40;99.90;;;;;;5042265;28;20185;-46
2023/08/21 02:56:59;;;;;;;17.63;16.43;;;21.40;99.90;;;;;;5041338;28;20424;-44
2023/08/21 02:59:24;;;;;;;18.77;17.47;;;21.40;99.90;;;;;;5040431;28;20200;-46
2023/08/21 03:01:50;;;;;;;17.87;16.47;;;21.40;99.90;;;;;;5042416;28;20186;-43
2023/08/21 03:04:15;;;;;;;19.23;17.83;;;21.30;99.90;;;;;;5040002;28;20711;-43
2023/08/21 03:06:41;;;;;;;18.20;16.80;;;21.30;99.90;;;;;;5037402;28;20197;-43
2023/08/21 03:09:07;;;;;;;19.60;18.00;;;21.30;99.90;;;;;;5032704;28;20209;-43
2023/08/21 03:11:32;;;;;;;18.50;17.10;;;21.30;99.90;;;;;;5040148;28;20177;-40
2023/08/21 03:13:58;;;;;;;18.87;17.50;;;21.30;99.90;;;;;;5040723;28;21333;-41
2023/08/21 03:16:23;;;;;;;19.20;17.70;;;21.30;99.90;;;;;;5041480;28;20186;-41
2023/08/21 03:18:58;;;;;;;18.97;17.63;;;21.30;99.90;;;;;;5041708;28;20731;-41
2023/08/21 03:21:24;;;;;;;18.27;16.90;;;21.30;99.90;;;;;;5042321;28;20538;-41
2023/08/21 03:23:56;;;;;;;19.40;17.90;;;21.30;99.90;;;;;;5041788;28;20451;-44
2023/08/21 03:26:22;;;;;;;17.90;16.60;;;21.30;99.90;;;;;;5040864;28;20551;-40
2023/08/21 03:28:47;;;;;;;18.37;17.07;;;21.30;99.90;;;;;;5041530;28;20471;-43
2023/08/21 03:31:14;;;;;;;18.87;17.47;;;21.40;99.90;;;;;;5041716;28;20420;-41
2023/08/21 03:33:39;;;;;;;19.40;17.77;;;21.30;99.90;;;;;;5040883;28;20194;-42
2023/08/21 03:36:05;;;;;;;19.83;18.30;;;21.30;99.90;;;;;;5040191;28;20458;-47
2023/08/21 03:38:30;;;;;;;17.57;16.17;;;21.30;99.90;;;;;;5040617;28;20205;-40
2023/08/21 03:40:56;;;;;;;19.67;18.27;;;21.30;99.90;;;;;;5040680;28;20269;-42
2023/08/21 03:43:22;;;;;;;19.87;18.33;;;21.30;99.90;;;;;;5041537;28;20185;-43
2023/08/21 03:45:47;;;;;;;18.40;17.00;;;21.40;99.90;;;;;;5041230;28;20185;-43
2023/08/21 03:48:13;;;;;;;19.17;17.77;;;21.40;99.90;;;;;;5040757;28;20213;-43
2023/08/21 03:50:39;;;;;;;18.73;17.53;;;21.50;99.90;;;;;;5041195;28;20671;-41
2023/08/21 03:53:04;;;;;;;18.40;17.10;;;21.50;99.90;;;;;;5041278;28;20208;-42
2023/08/21 03:55:30;;;;;;;19.00;17.17;;;21.60;99.90;;;;;;5040392;28;20181;-41
2023/08/21 03:57:56;;;;;;;17.67;16.47;;;21.60;99.90;;;;;;5040743;28;21218;-45
2023/08/21 04:00:22;;;;;;;17.67;16.37;;;21.60;99.90;;;;;;5022035;28;20268;-44
2023/08/21 04:02:47;;;;;;;18.10;16.80;;;21.60;99.90;;;;;;5040834;28;20190;-42
2023/08/21 04:05:13;;;;;;;17.23;15.93;;;21.60;99.90;;;;;;5040213;28;20182;-43
2023/08/21 04:07:39;;;;;;;16.60;15.50;;;21.60;99.90;;;;;;5039517;28;20239;-41
2023/08/21 04:10:05;;;;;;;17.60;16.40;;;21.60;99.90;;;;;;5041103;28;20209;-40
2023/08/21 04:12:31;;;;;;;17.80;16.50;;;21.60;99.90;;;;;;5040786;28;20539;-44
2023/08/21 04:14:57;;;;;;;17.80;16.63;;;21.60;99.90;;;;;;5037996;28;21042;-43
2023/08/21 04:17:23;;;;;;;19.17;17.87;;;21.60;99.90;;;;;;5038480;28;20193;-45
2023/08/21 04:19:49;;;;;;;19.50;18.00;;;21.60;99.90;;;;;;5037849;28;20641;-42
2023/08/21 04:22:15;;;;;;;18.03;16.67;;;21.50;99.90;;;;;;5039804;28;20448;-41
2023/08/21 04:24:41;;;;;;;18.70;17.37;;;21.50;99.90;;;;;;5039995;28;20432;-45
2023/08/21 04:27:07;;;;;;;19.40;18.00;;;21.50;99.90;;;;;;5040029;28;20286;-42
2023/08/21 04:29:35;;;;;;;18.50;17.20;;;21.50;99.90;;;;;;5040150;28;20508;-44
2023/08/21 04:32:01;;;;;;;20.47;18.77;;;21.50;99.90;;;;;;5040807;28;20420;-42
2023/08/21 04:34:27;;;;;;;20.07;18.63;;;21.50;99.90;;;;;;5040108;28;20442;-40
2023/08/21 04:36:52;;;;;;;19.60;18.30;;;21.60;99.90;;;;;;5040443;28;20193;-40
2023/08/21 04:39:18;;;;;;;20.00;18.40;;;21.60;99.90;;;;;;5039934;28;20192;-41
2023/08/21 04:41:44;;;;;;;19.73;18.33;;;21.50;99.90;;;;;;5039153;28;20185;-42
2023/08/21 04:44:09;;;;;;;20.27;18.87;;;21.50;99.90;;;;;;5040501;28;20233;-42
2023/08/21 04:46:35;;;;;;;19.17;17.50;;;21.40;99.90;;;;;;5038665;28;20201;-42
2023/08/21 04:49:00;;;;;;;20.20;18.70;;;21.50;99.90;;;;;;5039124;28;20228;-45
2023/08/21 04:51:26;;;;;;;19.20;17.80;;;21.50;99.90;;;;;;5038702;28;20190;-43
2023/08/21 04:53:52;;;;;;;20.10;18.60;;;21.50;99.90;;;;;;5037446;28;20200;-42
2023/08/21 04:56:17;;;;;;;21.70;19.70;;;21.50;99.90;;;;;;5036130;28;20212;-42
2023/08/21 04:58:43;;;;;;;19.87;18.47;;;21.50;99.90;;;;;;5039168;28;20265;-41
2023/08/21 05:01:08;;;;;;;20.80;19.30;;;21.60;99.90;;;;;;5011421;28;20201;-45
2023/08/21 05:03:34;;;;;;;21.10;19.53;;;21.60;99.90;;;;;;5039512;28;20193;-47
2023/08/21 05:06:00;;;;;;;22.20;20.50;;;21.60;99.90;;;;;;5039922;28;20197;-43
2023/08/21 05:08:26;;;;;;;21.17;19.30;;;21.60;99.90;;;;;;5039784;28;20185;-43
2023/08/21 05:10:58;;;;;;;21.30;19.67;;;21.60;99.90;;;;;;5039750;28;20209;-41
2023/08/21 05:13:25;;;;;;;21.60;20.00;;;21.60;99.90;;;;;;5039746;28;20424;-41
2023/08/21 05:15:54;;;;;;;21.87;20.37;;;21.60;99.90;;;;;;5039328;28;20440;-42
2023/08/21 05:18:21;;;;;;;21.60;19.90;;;21.60;99.90;;;;;;5039576;28;20478;-42
2023/08/21 05:20:48;;;;;;;23.33;21.73;;;21.60;99.90;;;;;;5038646;28;20778;-42
2023/08/21 05:23:14;;;;;;;21.00;19.50;;;21.70;99.90;;;;;;5038982;28;20436;-41
2023/08/21 05:25:39;;;;;;;21.33;19.80;;;21.70;99.90;;;;;;5039241;28;20533;-43
2023/08/21 05:28:06;;;;;;;23.20;21.23;;;21.70;99.90;;;;;;5039164;28;20263;-43
2023/08/21 05:30:31;;;;;;;23.43;21.63;;;21.80;99.90;;;;;;5038822;28;20217;-42
2023/08/21 05:32:57;;;;;;;23.60;21.77;;;21.70;99.90;;;;;;5039182;28;21328;-44
2023/08/21 05:35:22;;;;;;;22.57;20.97;;;21.80;99.90;;;;;;5037545;28;20292;-41
2023/08/21 05:37:48;;;;;;;21.27;19.67;;;21.80;99.90;;;;;;5036667;28;20725;-46
2023/08/21 05:40:14;;;;;;;21.17;19.67;;;21.80;99.90;;;;;;5038385;28;20200;-42
2023/08/21 05:42:40;;;;;;;22.20;20.40;;;21.90;99.90;;;;;;5035271;28;20198;-43
2023/08/21 05:45:06;;;;;;;22.03;20.33;;;21.90;99.90;;;;;;5039378;28;20834;-42
2023/08/21 05:47:31;;;;;;;23.10;21.40;;;22.00;99.90;;;;;;5037994;28;20354;-44
2023/08/21 05:49:57;;;;;;;22.83;21.00;;;22.00;99.90;;;;;;5038941;28;20466;-41
2023/08/21 05:52:23;;;;;;;22.17;20.57;;;22.00;99.90;;;;;;5038974;28;20225;-42
2023/08/21 05:54:49;;;;;;;23.10;21.20;;;22.00;99.90;;;;;;5039442;28;20193;-45
2023/08/21 05:57:15;;;;;;;22.17;20.47;;;22.00;99.90;;;;;;5038867;28;20258;-46
2023/08/21 05:59:47;;;;;;;22.37;20.77;;;22.10;99.90;;;;;;5038800;28;20503;-42
2023/08/21 06:02:13;;;;;;;22.23;20.63;;;22.10;99.90;;;;;;5041869;28;20497;-41
2023/08/21 06:04:43;;;;;;;21.67;19.97;;;22.10;99.90;;;;;;5039824;28;20545;-41
2023/08/21 06:07:09;;;;;;;22.00;20.40;;;22.20;99.90;;;;;;5041826;28;20511;-45
2023/08/21 06:09:36;;;;;;;22.33;20.43;;;22.30;99.90;;;;;;5022397;28;20463;-44
2023/08/21 06:12:02;;;;;;;22.40;20.80;;;22.40;99.90;;;;;;5042513;28;20548;-41
2023/08/21 06:14:28;;;;;;;22.00;20.40;;;22.40;99.90;;;;;;5041441;28;20614;-41
2023/08/21 06:17:01;;;;;;;22.67;20.97;;;22.30;99.90;;;;;;5041541;28;20551;-43
2023/08/21 06:19:28;;;;;;;21.23;19.63;;;22.30;99.90;;;;;;5042187;28;20444;-44
2023/08/21 06:21:55;;;;;;;20.50;19.00;;;22.40;99.90;;;;;;5041730;28;21616;-41
2023/08/21 06:24:21;;;;;;;21.87;20.27;;;22.50;99.90;;;;;;5024290;28;20448;-43
2023/08/21 06:26:47;;;;;;;22.20;20.60;;;22.60;99.90;;;;;;5041795;28;20514;-42
2023/08/21 06:29:12;;;;;;;20.67;19.20;;;22.70;99.90;;;;;;5042820;28;20292;-44
2023/08/21 06:31:38;;;;;;;21.50;19.80;;;22.70;99.90;;;;;;5042640;28;20176;-41
2023/08/21 06:34:04;;;;;;;21.03;19.43;;;22.80;99.90;;;;;;5042905;28;20186;-42
2023/08/21 06:36:29;;;;;;;21.67;19.93;;;23.00;99.90;;;;;;5042480;28;20399;-43
2023/08/21 06:38:55;;;;;;;20.53;19.07;;;23.10;99.90;;;;;;5042376;28;20182;-41
2023/08/21 06:41:21;;;;;;;21.53;20.10;;;23.10;99.90;;;;;;5042673;28;20209;-46
2023/08/21 06:43:47;;;;;;;21.33;19.73;;;23.30;99.90;;;;;;5042265;28;20463;-43
2023/08/21 06:46:13;;;;;;;20.47;18.97;;;23.50;99.90;;;;;;5042455;28;20304;-45
2023/08/21 06:48:40;;;;;;;20.00;18.60;;;23.60;99.90;;;;;;5041438;28;20198;-44
2023/08/21 06:51:06;;;;;;;21.63;19.50;;;23.80;99.90;;;;;;5042165;28;20420;-44
2023/08/21 06:53:32;;;;;;;21.77;19.30;;;23.80;99.90;;;;;;5042281;28;20420;-47
2023/08/21 06:55:58;;;;;;;22.83;18.60;;;23.90;99.90;;;;;;5042123;28;20214;-44
2023/08/21 06:58:23;;;;;;;19.10;17.70;;;24.00;99.90;;;;;;5042199;28;20293;-45
2023/08/21 07:00:49;;;;;;;19.93;18.43;;;24.10;99.90;;;;;;5042296;28;20194;-44
2023/08/21 07:03:15;;;;;;;20.37;18.90;;;24.30;99.90;;;;;;5042203;28;20209;-42
2023/08/21 07:05:40;;;;;;;19.10;17.67;;;24.50;99.90;;;;;;5024113;28;20194;-45
2023/08/21 07:08:06;;;;;;;19.93;18.20;;;24.60;99.90;;;;;;5041943;28;20578;-46
2023/08/21 07:10:38;;;;;;;19.20;17.90;;;24.70;99.90;;;;;;5042031;28;20218;-46
2023/08/21 07:13:04;;;;;;;20.60;19.00;;;24.70;99.90;;;;;;5041190;28;20182;-50
2023/08/21 07:15:30;;;;;;;19.60;18.30;;;24.80;99.90;;;;;;5040768;28;20424;-45
2023/08/21 07:17:55;;;;;;;19.60;18.10;;;24.90;99.90;;;;;;5041888;28;20592;-44
2023/08/21 07:20:22;;;;;;;19.13;17.83;;;25.00;99.90;;;;;;5041699;28;20416;-44
2023/08/21 07:22:47;;;;;;;18.57;17.47;;;25.10;99.90;;;;;;5041791;28;20185;-44
2023/08/21 07:25:13;;;;;;;17.83;16.53;;;25.30;99.90;;;;;;5041560;28;20412;-44
2023/08/21 07:27:39;;;;;;;18.87;17.67;;;25.50;99.90;;;;;;5041609;28;20704;-44
2023/08/21 07:30:06;;;;;;;18.10;16.93;;;25.60;99.90;;;;;;5040587;28;20228;-42
2023/08/21 07:32:32;;;;;;;17.90;16.80;;;25.70;99.90;;;;;;5040903;28;20185;-42
2023/08/21 07:34:57;;;;;;;17.60;16.40;;;25.80;99.90;;;;;;5041852;28;20404;-45
2023/08/21 07:37:23;;;;;;;18.23;17.17;;;25.90;99.90;;;;;;5041182;28;20193;-47
2023/08/21 07:39:48;;;;;;;18.73;17.53;;;26.00;99.90;;;;;;5041693;28;20215;-42
2023/08/21 07:42:14;;;;;;;18.67;17.37;;;26.20;99.90;;;;;;5020174;28;20251;-45
2023/08/21 07:44:40;;;;;;;19.37;18.17;;;26.30;99.90;;;;;;5040906;28;20553;-41
2023/08/21 07:47:06;;;;;;;18.70;17.50;;;26.30;99.90;;;;;;5041089;28;20268;-43
2023/08/21 07:49:33;;;;;;;18.80;17.53;;;26.50;99.90;;;;;;5041052;28;20257;-42
2023/08/21 07:51:58;;;;;;;18.03;16.83;;;26.60;99.90;;;;;;5041113;28;20193;-49
2023/08/21 07:54:24;;;;;;;18.53;17.33;;;26.70;99.90;;;;;;5041244;28;20420;-45
2023/08/21 07:56:50;;;;;;;18.40;17.20;;;26.80;99.90;;;;;;5041022;28;20182;-42
2023/08/21 07:59:16;;;;;;;17.50;16.50;;;26.80;99.90;;;;;;5041564;28;20190;-46
2023/08/21 08:01:42;;;;;;;17.73;16.63;;;26.90;99.90;;;;;;5040774;28;20852;-43
2023/08/21 08:04:10;;;;;;;18.33;17.13;;;27.00;99.90;;;;;;5041338;28;20451;-44
2023/08/21 08:06:36;;;;;;;17.73;16.37;;;27.00;99.90;;;;;;5040964;28;20208;-41
2023/08/21 08:09:03;;;;;;;17.47;16.37;;;27.10;99.90;;;;;;5040603;28;20464;-46
2023/08/21 08:11:29;;;;;;;18.33;17.23;;;27.20;99.90;;;;;;5040525;28;20188;-42
2023/08/21 08:13:56;;;;;;;18.70;17.50;;;27.40;99.90;;;;;;5040350;28;20436;-47
2023/08/21 08:16:21;;;;;;;18.10;17.00;;;27.50;99.90;;;;;;5040467;28;20412;-44
2023/08/21 08:18:47;;;;;;;18.53;17.10;;;27.50;99.90;;;;;;5040464;28;20443;-45
2023/08/21 08:21:12;;;;;;;18.83;17.73;;;27.60;99.90;;;;;;5040739;28;20810;-43
2023/08/21 08:23:38;;;;;;;19.83;18.60;;;27.60;99.90;;;;;;5041063;28;20185;-43
2023/08/21 08:26:04;;;;;;;18.33;17.03;;;27.70;99.90;;;;;;5040825;28;20186;-44
2023/08/21 08:28:29;;;;;;;17.77;16.57;;;27.80;99.90;;;;;;5040452;28;20204;-42
2023/08/21 08:30:55;;;;;;;18.30;17.20;;;27.90;99.90;;;;;;5022831;28;20206;-45
2023/08/21 08:33:20;;;;;;;18.23;17.10;;;28.00;99.90;;;;;;5040509;28;20186;-41
2023/08/21 08:35:46;;;;;;;19.50;18.07;;;28.10;99.90;;;;;;5040843;28;20178;-43
2023/08/21 08:38:12;;;;;;;18.23;17.13;;;28.20;99.90;;;;;;5040632;28;20679;-43
2023/08/21 08:40:45;;;;;;;20.10;18.80;;;28.30;99.90;;;;;;5039639;28;20816;-46
2023/08/21 08:43:14;;;;;;;19.53;18.33;;;28.50;99.90;;;;;;5039841;28;20225;-45
2023/08/21 08:45:41;;;;;;;18.23;16.93;;;28.60;99.90;;;;;;5040631;28;20404;-42
2023/08/21 08:48:07;;;;;;;19.50;18.20;;;28.70;99.90;;;;;;5040047;28;20428;-45
2023/08/21 08:50:34;;;;;;;18.77;17.57;;;28.80;99.90;;;;;;5040294;28;20456;-43
2023/08/21 08:53:00;;;;;;;18.33;17.13;;;28.90;99.90;;;;;;5040162;28;20451;-43
2023/08/21 08:55:26;;;;;;;18.17;17.07;;;28.90;99.90;;;;;;5039734;28;20447;-43
2023/08/21 08:57:55;;;;;;;19.30;18.10;;;29.10;99.90;;;;;;5040468;28;20412;-45
2023/08/21 09:00:22;;;;;;;19.13;17.93;;;29.10;99.90;;;;;;5040280;28;20181;-49
2023/08/21 09:02:48;;;;;;;18.70;17.60;;;29.20;99.90;;;;;;5040067;28;20424;-43
2023/08/21 09:05:13;;;;;;;19.37;17.90;;;29.30;99.90;;;;;;5040077;28;20420;-42
2023/08/21 09:07:39;;;;;;;18.70;17.33;;;29.40;99.90;;;;;;5040144;28;20412;-45
2023/08/21 09:10:13;;;;;;;18.60;17.40;;;29.40;99.90;;;;;;5039156;28;20209;-47
2023/08/21 09:12:39;;;;;;;20.27;19.07;;;29.50;99.90;;;;;;5018965;28;20432;-43
2023/08/21 09:15:08;;;;;;;19.80;18.27;;;29.60;99.90;;;;;;5037016;28;20452;-45
2023/08/21 09:17:34;;;;;;;19.70;18.30;;;29.60;99.90;;;;;;5012788;28;20436;-43
2023/08/21 09:20:08;;;;;;;18.77;17.47;;;29.70;99.90;;;;;;5020931;28;20803;-42
2023/08/21 09:22:33;;;;;;;20.03;18.63;;;29.80;99.90;;;;;;5039661;28;20189;-43
2023/08/21 09:25:07;;;;;;;19.90;18.60;;;30.00;99.90;;;;;;5039976;28;20933;-45
2023/08/21 09:27:37;;;;;;;20.70;19.30;;;30.20;99.90;;;;;;5039506;28;20229;-41
2023/08/21 09:30:12;;;;;;;20.57;19.10;;;30.10;99.90;;;;;;5039623;28;20583;-43
2023/08/21 09:32:56;;;;;;;18.50;17.30;;;29.90;99.90;;;;;;5039829;28;20495;-43
2023/08/21 09:35:23;;;;;;;19.47;18.17;;;29.90;99.90;;;;;;5039956;28;21259;-43
2023/08/21 09:37:52;;;;;;;19.63;18.43;;;30.00;99.90;;;;;;5042905;28;20539;-48
2023/08/21 09:40:18;;;;;;;19.07;17.87;;;30.10;99.90;;;;;;5043135;28;20432;-41
2023/08/21 09:42:44;;;;;;;18.67;17.33;;;30.20;99.50;;;;;;5042254;28;20467;-42
2023/08/21 09:45:10;;;;;;;18.60;17.50;;;30.30;98.30;;;;;;5043905;28;20416;-44
2023/08/21 09:47:39;;;;;;;18.10;17.10;;;30.40;97.60;;;;;;5043782;28;20185;-43
2023/08/21 09:50:05;;;;;;;18.33;17.03;;;30.50;96.70;;;;;;5043765;28;20197;-42
2023/08/21 09:52:31;;;;;;;18.50;17.20;;;30.70;96.50;;;;;;5025548;28;20431;-46
2023/08/21 09:54:57;;;;;;;16.70;15.70;;;30.90;96.90;;;;;;5025217;28;20927;-42
2023/08/21 09:57:23;;;;;;;17.50;16.50;;;31.10;95.20;;;;;;5043423;28;20182;-46
2023/08/21 09:59:54;;;;;;;17.63;16.63;;;31.20;93.40;;;;;;5043497;28;20910;-45
2023/08/21 10:02:22;;;;;;;19.40;18.20;;;31.40;92.40;;;;;;5043645;28;20544;-42
2023/08/21 10:04:49;;;;;;;19.10;17.90;;;31.50;90.80;;;;;;5042256;28;20497;-56
2023/08/21 10:07:25;;;;;;;17.93;16.83;;;31.50;90.70;;;;;;5042358;28;20536;-57
2023/08/21 10:09:52;;;;;;;18.30;17.27;;;31.70;90.60;;;;;;5042924;28;20825;-56
2023/08/21 10:12:19;;;;;;;18.00;16.90;;;31.90;89.70;;;;;;5042827;28;20420;-55
2023/08/21 10:14:44;;;;;;;17.40;16.30;;;32.00;85.10;;;;;;5043226;28;20408;-55
2023/08/21 10:17:10;;;;;;;16.77;15.67;;;32.10;82.70;;;;;;5043261;28;20427;-56
2023/08/21 10:19:36;;;;;;;16.10;15.10;;;32.10;80.70;;;;;;5042032;28;20181;-56
2023/08/21 10:22:03;;;;;;;16.20;15.30;;;32.30;79.90;;;;;;5042582;28;20678;-57
2023/08/21 10:24:38;;;;;;;17.20;16.30;;;32.30;75.00;;;;;;5042361;28;20295;-57
2023/08/21 10:27:06;;;;;;;16.90;16.00;;;32.40;75.80;;;;;;5042448;28;20479;-56
2023/08/21 10:29:32;;;;;;;16.17;15.27;;;32.60;71.30;;;;;;5042704;28;20526;-55
2023/08/21 10:32:04;;;;;;;16.10;15.30;;;32.60;71.10;;;;;;5043230;28;20447;-57
2023/08/21 10:34:37;;;;;;;16.93;15.83;;;32.80;68.60;;;;;;5042951;28;20264;-55
2023/08/21 10:37:06;;;;;;;16.40;15.50;;;32.80;64.00;;;;;;5042658;28;20459;-58
2023/08/21 10:39:33;;;;;;;17.20;16.20;;;32.90;64.00;;;;;;5042891;28;20424;-53
2023/08/21 10:42:09;;;;;;;16.93;15.83;;;33.00;62.80;;;;;;5042587;28;21005;-57
2023/08/21 10:44:58;;;;;;;16.23;15.30;;;33.00;62.00;;;;;;5042442;28;20419;-56
2023/08/21 10:47:27;;;;;;;16.50;15.43;;;32.90;59.90;;;;;;5024590;28;20447;-54
2023/08/21 10:49:55;;;;;;;16.33;15.33;;;33.00;62.00;;;;;;5040291;28;20460;-48
2023/08/21 10:52:28;;;;;;;16.03;15.03;;;33.10;61.00;;;;;;5041841;28;20440;-55
2023/08/21 10:54:59;;;;;;;16.57;15.60;;;33.30;58.60;;;;;;5023507;28;20539;-55
2023/08/21 10:57:29;;;;;;;15.03;14.23;;;33.40;58.70;;;;;;5041453;28;20413;-56
2023/08/21 11:00:00;;;;;;;16.70;15.80;;;33.80;54.60;;;;;;5041102;28;20419;-49
2023/08/21 11:02:30;;;;;;;16.20;15.40;;;33.90;54.50;;;;;;5041161;28;20431;-50
2023/08/21 11:04:57;;;;;;;15.80;15.00;;;34.10;54.20;;;;;;5041641;28;20823;-49
2023/08/21 11:07:23;;;;;;;15.33;14.53;;;34.20;53.20;;;;;;5041184;28;20424;-51
2023/08/21 11:09:49;;;;;;;16.93;16.03;;;34.30;52.80;;;;;;5040810;28;20579;-54
2023/08/21 11:12:17;;;;;;;15.10;14.30;;;34.30;52.10;;;;;;5041267;28;21183;-55
2023/08/21 11:14:43;;;;;;;16.17;15.27;;;34.40;52.30;;;;;;5040891;28;20504;-59
2023/08/21 11:17:09;;;;;;;15.70;14.80;;;34.50;49.20;;;;;;5040497;28;20436;-56
2023/08/21 11:19:36;;;;;;;16.83;15.73;;;34.20;47.70;;;;;;5040406;28;20526;-57
2023/08/21 11:22:08;;;;;;;17.03;16.23;;;34.00;47.30;;;;;;5040989;28;20424;-52
2023/08/21 11:24:37;;;;;;;15.67;14.77;;;33.80;48.20;;;;;;5041022;28;20517;-54
2023/08/21 11:27:04;;;;;;;17.37;16.10;;;33.80;51.20;;;;;;5040540;28;20468;-50
2023/08/21 11:29:40;;;;;;;17.93;16.83;;;33.90;50.40;;;;;;5040555;28;20954;-57
2023/08/21 11:32:15;;;;;;;16.17;15.27;;;34.00;50.20;;;;;;5039676;28;20424;-54
2023/08/21 11:34:53;;;;;;;16.73;15.83;;;34.00;48.40;;;;;;5039960;28;20477;-52
2023/08/21 11:37:20;;;;;;;16.63;15.83;;;33.90;48.40;;;;;;5040802;28;21055;-56
2023/08/21 11:39:48;;;;;;;16.03;15.03;;;33.70;47.50;;;;;;5040680;28;20455;-57
2023/08/21 11:42:14;;;;;;;17.93;16.73;;;33.70;49.10;;;;;;5041174;28;20444;-54
2023/08/21 11:44:50;;;;;;;17.50;16.50;;;33.80;49.70;;;;;;5040468;28;20708;-53
2023/08/21 11:47:17;;;;;;;16.60;15.70;;;33.90;47.90;;;;;;5039455;28;20791;-55
2023/08/21 11:49:47;;;;;;;15.70;14.80;;;34.10;49.10;;;;;;5039385;28;20503;-53
2023/08/21 11:52:13;;;;;;;17.37;16.27;;;34.30;49.10;;;;;;5040916;28;20424;-50
2023/08/21 11:54:40;;;;;;;15.73;14.83;;;34.70;47.80;;;;;;5040336;28;20879;-56
2023/08/21 11:57:12;;;;;;;16.27;15.27;;;35.00;46.30;;;;;;5040795;28;20459;-50
2023/08/21 11:59:38;;;;;;;15.60;14.80;;;34.90;45.60;;;;;;5039480;28;20400;-55
2023/08/21 12:02:14;;;;;;;16.27;15.40;;;34.80;45.30;;;;;;5040658;28;20891;-56
2023/08/21 12:04:40;;;;;;;15.50;14.50;;;34.50;45.90;;;;;;5040090;28;20418;-54
2023/08/21 12:07:06;;;;;;;15.47;14.67;;;34.20;46.30;;;;;;5038907;28;20566;-54
2023/08/21 12:09:32;;;;;;;15.73;14.90;;;34.00;47.10;;;;;;5038748;28;20308;-52
2023/08/21 12:11:57;;;;;;;15.17;14.37;;;34.00;46.90;;;;;;5039329;28;20181;-54
2023/08/21 12:14:23;;;;;;;15.33;14.53;;;34.20;45.90;;;;;;5038829;28;20455;-56
2023/08/21 12:16:49;;;;;;;16.07;15.17;;;34.40;45.60;;;;;;5039985;28;20228;-54
2023/08/21 12:19:14;;;;;;;14.83;14.07;;;34.70;46.80;;;;;;5020610;28;20184;-50
2023/08/21 12:21:40;;;;;;;15.80;14.80;;;35.20;45.40;;;;;;5040290;28;20248;-53
2023/08/21 12:24:09;;;;;;;16.37;15.37;;;35.50;43.90;;;;;;5039825;28;20330;-53
2023/08/21 12:26:34;;;;;;;15.70;14.80;;;35.80;43.50;;;;;;5039446;28;20678;-51